createdAt,value
2018-11-26T00:01:04.860Z,75.53
2018-11-26T00:02:15.024Z,75.53
2018-11-26T00:03:24.912Z,75.62
2018-11-26T00:04:35.067Z,75.53
2018-11-26T00:05:44.694Z,75.15
2018-11-26T00:06:54.859Z,75.24
2018-11-26T00:08:05.030Z,75.62
2018-11-26T00:09:15.198Z,76.01
2018-11-26T00:10:25.092Z,75.91
2018-11-26T00:11:34.987Z,75.91
2018-11-26T00:12:45.171Z,76.01
2018-11-26T00:13:55.335Z,76.01
2018-11-26T00:15:05.236Z,76.01
2018-11-26T00:16:15.403Z,75.72
2018-11-26T00:17:25.574Z,76.2
2018-11-26T00:18:35.725Z,75.81
2018-11-26T00:19:45.875Z,75.53
2018-11-26T00:20:56.032Z,75.81
2018-11-26T00:22:06.195Z,75.91
2018-11-26T00:23:16.354Z,76.39
2018-11-26T00:24:26.242Z,75.81
2018-11-26T00:25:36.414Z,76.01
2018-11-26T00:26:46.312Z,75.72
2018-11-26T00:27:56.212Z,75.81
2018-11-26T00:29:06.376Z,75.91
2018-11-26T00:30:16.269Z,75.53
2018-11-26T00:31:26.213Z,76.01
2018-11-26T00:32:36.119Z,75.91
2018-11-26T00:33:46.287Z,76.01
2018-11-26T00:34:56.453Z,76.01
2018-11-26T00:36:06.610Z,75.81
2018-11-26T00:37:16.777Z,75.91
2018-11-26T00:38:26.924Z,76.01
2018-11-26T00:39:37.088Z,75.81
2018-11-26T00:40:47.244Z,75.81
2018-11-26T00:41:57.400Z,75.81
2018-11-26T00:43:07.562Z,76.01
2018-11-26T00:44:17.451Z,75.91
2018-11-26T00:45:27.615Z,76.01
2018-11-26T00:46:37.777Z,76.29
2018-11-26T00:47:47.669Z,75.53
2018-11-26T00:48:57.831Z,76.2
2018-11-26T00:50:08.001Z,76.2
2018-11-26T00:51:18.153Z,75.91
2018-11-26T00:52:28.309Z,76.2
2018-11-26T00:53:37.960Z,75.81
2018-11-26T00:54:48.131Z,76.57
2018-11-26T00:55:58.298Z,76.57
2018-11-26T00:57:08.460Z,76.39
2018-11-26T00:58:18.621Z,76.57
2018-11-26T00:59:28.775Z,76.01
2018-11-26T01:00:38.664Z,76.2
2018-11-26T01:01:48.820Z,76.57
2018-11-26T01:02:58.470Z,76.2
2018-11-26T01:04:08.634Z,75.91
2018-11-26T01:05:18.795Z,76.39
2018-11-26T01:06:28.951Z,76.57
2018-11-26T01:07:39.116Z,76.95
2018-11-26T01:08:49.292Z,77.05
2018-11-26T01:09:59.443Z,77.05
2018-11-26T01:11:09.660Z,76.86
2018-11-26T01:12:19.821Z,76.76
2018-11-26T01:13:29.717Z,76.67
2018-11-26T01:14:39.871Z,76.86
2018-11-26T01:15:49.764Z,77.62
2018-11-26T01:16:59.926Z,77.33
2018-11-26T01:18:10.095Z,77.24
2018-11-26T01:19:19.995Z,77.14
2018-11-26T01:20:30.185Z,77.33
2018-11-26T01:21:40.352Z,77.33
2018-11-26T01:22:50.502Z,77.14
2018-11-26T01:24:00.657Z,77.33
2018-11-26T01:25:10.815Z,77.14
2018-11-26T01:26:20.971Z,77.52
2018-11-26T01:27:31.138Z,77.71
2018-11-26T01:28:41.297Z,77.43
2018-11-26T01:29:51.453Z,77.71
2018-11-26T01:31:01.612Z,77.33
2018-11-26T01:32:11.775Z,77.43
2018-11-26T01:33:21.984Z,77.14
2018-11-26T01:34:31.876Z,77.14
2018-11-26T01:35:41.813Z,77.9
2018-11-26T01:36:51.967Z,77.62
2018-11-26T01:38:01.861Z,77.71
2018-11-26T01:39:12.026Z,77.81
2018-11-26T01:40:22.184Z,77.52
2018-11-26T01:41:32.383Z,77.52
2018-11-26T01:42:42.537Z,77.81
2018-11-26T01:43:52.696Z,77.62
2018-11-26T01:45:02.859Z,77.9
2018-11-26T01:46:13.015Z,77.62
2018-11-26T01:47:23.170Z,77.52
2018-11-26T01:48:33.342Z,77.81
2018-11-26T01:49:43.501Z,77.52
2018-11-26T01:50:53.390Z,77.81
2018-11-26T01:52:03.548Z,77.71
2018-11-26T01:53:13.441Z,77.71
2018-11-26T01:54:23.591Z,77.52
2018-11-26T01:55:33.480Z,77.9
2018-11-26T01:56:43.387Z,77.43
2018-11-26T01:57:53.285Z,77.71
2018-11-26T01:59:03.449Z,77.9
2018-11-26T02:00:13.355Z,77.33
2018-11-26T02:01:23.260Z,77.52
2018-11-26T02:02:33.421Z,77.62
2018-11-26T02:03:43.317Z,77.52
2018-11-26T02:04:53.471Z,77.81
2018-11-26T02:06:03.388Z,77.62
2018-11-26T02:07:13.550Z,77.62
2018-11-26T02:08:23.723Z,77.81
2018-11-26T02:09:33.620Z,77.43
2018-11-26T02:10:43.780Z,77.52
2018-11-26T02:11:53.412Z,77.62
2018-11-26T02:13:03.314Z,77.81
2018-11-26T02:14:13.468Z,77.33
2018-11-26T02:15:23.631Z,77.81
2018-11-26T02:16:33.785Z,77.71
2018-11-26T02:17:43.968Z,77.62
2018-11-26T02:18:54.134Z,77.71
2018-11-26T02:20:04.045Z,78.09
2018-11-26T02:21:14.203Z,77.62
2018-11-26T02:22:24.363Z,77.33
2018-11-26T02:23:34.522Z,77.81
2018-11-26T02:24:44.673Z,77.81
2018-11-26T02:25:54.580Z,77.71
2018-11-26T02:27:04.478Z,77.9
2018-11-26T02:28:14.372Z,78
2018-11-26T02:29:24.265Z,77.96
2018-11-26T02:30:34.425Z,78.09
2018-11-26T02:31:44.577Z,77.96
2018-11-26T02:32:54.745Z,77.9
2018-11-26T02:34:04.919Z,77.71
2018-11-26T02:35:15.091Z,77.52
2018-11-26T02:36:25.285Z,77.33
2018-11-26T02:37:35.447Z,77.52
2018-11-26T02:38:45.626Z,77.71
2018-11-26T02:39:55.790Z,77.9
2018-11-26T02:41:05.942Z,77.52
2018-11-26T02:42:16.096Z,77.62
2018-11-26T02:43:26.248Z,78.09
2018-11-26T02:44:36.139Z,77.52
2018-11-26T02:45:46.288Z,78.28
2018-11-26T02:46:56.444Z,78
2018-11-26T02:48:06.597Z,77.9
2018-11-26T02:49:16.762Z,77.52
2018-11-26T02:50:26.662Z,77.9
2018-11-26T02:51:36.818Z,78.09
2018-11-26T02:52:46.972Z,78
2018-11-26T02:53:57.127Z,78.09
2018-11-26T02:55:07.294Z,77.9
2018-11-26T02:56:17.189Z,78.09
2018-11-26T02:57:27.354Z,77.9
2018-11-26T02:58:37.576Z,78.19
2018-11-26T02:59:47.733Z,78.09
2018-11-26T03:00:57.890Z,78.28
2018-11-26T03:02:08.050Z,78.09
2018-11-26T03:03:18.213Z,78.19
2018-11-26T03:04:28.370Z,78.09
2018-11-26T03:05:38.532Z,78.66
2018-11-26T03:06:48.699Z,78.28
2018-11-26T03:07:58.854Z,78.56
2018-11-26T03:09:08.746Z,78.28
2018-11-26T03:10:18.911Z,78.47
2018-11-26T03:11:29.060Z,78.43
2018-11-26T03:12:39.216Z,78.47
2018-11-26T03:13:49.424Z,78.47
2018-11-26T03:14:59.578Z,78.19
2018-11-26T03:16:09.741Z,78.66
2018-11-26T03:17:19.906Z,78.95
2018-11-26T03:18:30.066Z,78.95
2018-11-26T03:19:40.224Z,78.95
2018-11-26T03:20:50.377Z,79.14
2018-11-26T03:22:00.533Z,79.23
2018-11-26T03:23:10.706Z,78.85
2018-11-26T03:24:20.336Z,79.04
2018-11-26T03:25:30.227Z,78.85
2018-11-26T03:26:40.388Z,78.66
2018-11-26T03:27:50.282Z,78.85
2018-11-26T03:29:00.464Z,79.04
2018-11-26T03:30:10.648Z,79.14
2018-11-26T03:31:20.861Z,79.28
2018-11-26T03:32:31.083Z,78.91
2018-11-26T03:33:41.251Z,79.1
2018-11-26T03:34:50.883Z,78.75
2018-11-26T03:36:01.047Z,78.81
2018-11-26T03:37:11.031Z,78.81
2018-11-26T03:38:20.937Z,79.33
2018-11-26T03:39:31.119Z,78.95
2018-11-26T03:40:41.279Z,79.23
2018-11-26T03:41:51.427Z,78.75
2018-11-26T03:43:01.595Z,79.28
2018-11-26T03:44:11.232Z,79.28
2018-11-26T03:45:21.392Z,79.23
2018-11-26T03:46:31.574Z,79.19
2018-11-26T03:47:41.739Z,79.19
2018-11-26T03:48:51.912Z,79.57
2018-11-26T03:50:02.095Z,79.23
2018-11-26T03:51:12.278Z,79
2018-11-26T03:52:22.178Z,79.33
2018-11-26T03:53:32.335Z,79.19
2018-11-26T03:54:42.576Z,79.23
2018-11-26T03:55:52.736Z,79.42
2018-11-26T03:57:02.631Z,79.38
2018-11-26T03:58:12.797Z,79.33
2018-11-26T03:59:22.971Z,79.42
2018-11-26T04:00:33.128Z,79.28
2018-11-26T04:01:43.293Z,79.33
2018-11-26T04:02:53.472Z,79.33
2018-11-26T04:04:03.635Z,79.28
2018-11-26T04:05:13.790Z,79
2018-11-26T04:06:23.688Z,79.19
2018-11-26T04:07:33.840Z,79.38
2018-11-26T04:08:44.007Z,79.38
2018-11-26T04:09:53.633Z,78.95
2018-11-26T04:11:03.792Z,79.33
2018-11-26T04:12:13.683Z,79.47
2018-11-26T04:13:23.859Z,79.04
2018-11-26T04:14:33.759Z,79.28
2018-11-26T04:15:43.654Z,79.38
2018-11-26T04:16:53.550Z,79.38
2018-11-26T04:18:03.705Z,79.66
2018-11-26T04:19:13.860Z,79.76
2018-11-26T04:20:23.781Z,79.57
2018-11-26T04:21:33.684Z,79.28
2018-11-26T04:22:43.592Z,79.85
2018-11-26T04:23:53.762Z,79.76
2018-11-26T04:25:03.930Z,79.76
2018-11-26T04:26:14.094Z,79.42
2018-11-26T04:27:23.718Z,79.19
2018-11-26T04:28:33.892Z,79.38
2018-11-26T04:29:44.056Z,79.38
2018-11-26T04:30:53.948Z,79.85
2018-11-26T04:32:04.119Z,79.76
2018-11-26T04:33:14.273Z,79.57
2018-11-26T04:34:24.435Z,79.66
2018-11-26T04:35:34.601Z,79.76
2018-11-26T04:36:44.231Z,79.76
2018-11-26T04:37:54.128Z,79.76
2018-11-26T04:39:04.289Z,79.57
2018-11-26T04:40:14.445Z,79.57
2018-11-26T04:41:24.079Z,79.57
2018-11-26T04:42:33.973Z,79.76
2018-11-26T04:43:44.142Z,79.76
2018-11-26T04:44:54.289Z,79.57
2018-11-26T04:46:04.451Z,79.57
2018-11-26T04:47:14.347Z,79.57
2018-11-26T04:48:24.264Z,79.66
2018-11-26T04:49:34.430Z,79.85
2018-11-26T04:50:44.589Z,79.66
2018-11-26T04:51:54.217Z,79.57
2018-11-26T04:53:04.379Z,79.47
2018-11-26T04:54:14.544Z,79.47
2018-11-26T04:55:24.691Z,79.95
2018-11-26T04:56:34.848Z,79.57
2018-11-26T04:57:45.485Z,79.76
2018-11-26T04:58:55.644Z,79.76
2018-11-26T05:00:05.536Z,79.66
2018-11-26T05:01:15.689Z,79.66
2018-11-26T05:02:25.853Z,79.85
2018-11-26T05:03:35.753Z,79.57
2018-11-26T05:04:45.903Z,79.38
2018-11-26T05:05:56.069Z,79.76
2018-11-26T05:07:06.241Z,79.76
2018-11-26T05:08:16.403Z,79.66
2018-11-26T05:09:26.564Z,79.38
2018-11-26T05:10:36.716Z,79.76
2018-11-26T05:11:46.885Z,79.76
2018-11-26T05:12:57.047Z,79.76
2018-11-26T05:14:06.946Z,79.57
2018-11-26T05:15:16.854Z,79.85
2018-11-26T05:16:26.747Z,79.76
2018-11-26T05:17:36.907Z,79.76
2018-11-26T05:18:47.074Z,79.66
2018-11-26T05:19:57.236Z,79.38
2018-11-26T05:21:07.442Z,79.53
2018-11-26T05:22:17.621Z,79.66
2018-11-26T05:23:27.513Z,79.76
2018-11-26T05:24:37.696Z,79.76
2018-11-26T05:25:47.847Z,79.66
2018-11-26T05:26:58.018Z,79.38
2018-11-26T05:28:08.168Z,79.34
2018-11-26T05:29:18.072Z,79.72
2018-11-26T05:30:27.755Z,80.29
2018-11-26T05:31:37.965Z,79.72
2018-11-26T05:32:48.128Z,79.72
2018-11-26T05:33:58.080Z,79.53
2018-11-26T05:35:08.244Z,79.53
2018-11-26T05:36:18.402Z,79.34
2018-11-26T05:37:28.568Z,79.82
2018-11-26T05:38:38.726Z,79.82
2018-11-26T05:39:48.876Z,80.38
2018-11-26T05:40:59.037Z,80
2018-11-26T05:42:08.936Z,79.44
2018-11-26T05:43:19.102Z,79.34
2018-11-26T05:44:28.993Z,80
2018-11-26T05:45:38.885Z,79.63
2018-11-26T05:46:49.031Z,79.72
2018-11-26T05:47:59.181Z,79.72
2018-11-26T05:49:09.334Z,79.53
2018-11-26T05:50:19.224Z,80.29
2018-11-26T05:51:29.372Z,80.38
2018-11-26T05:52:39.526Z,80.48
2018-11-26T05:53:49.689Z,79.63
2018-11-26T05:54:59.579Z,79.63
2018-11-26T05:56:09.735Z,80.38
2018-11-26T05:57:19.929Z,80.29
2018-11-26T05:58:29.811Z,80.29
2018-11-26T05:59:39.968Z,80.29
2018-11-26T06:00:49.872Z,80.1
2018-11-26T06:02:00.033Z,80.38
2018-11-26T06:03:10.190Z,80.19
2018-11-26T06:04:20.080Z,80.29
2018-11-26T06:05:30.257Z,80.29
2018-11-26T06:06:40.408Z,80.1
2018-11-26T06:07:50.300Z,80.19
2018-11-26T06:09:00.452Z,80.29
2018-11-26T06:10:10.624Z,80.19
2018-11-26T06:11:20.791Z,80.38
2018-11-26T06:12:30.951Z,80.1
2018-11-26T06:13:41.103Z,80.1
2018-11-26T06:14:50.983Z,80
2018-11-26T06:16:00.870Z,80.19
2018-11-26T06:17:10.765Z,80.38
2018-11-26T06:18:20.925Z,80.19
2018-11-26T06:19:31.086Z,80.29
2018-11-26T06:20:41.247Z,80.67
2018-11-26T06:21:51.403Z,80.76
2018-11-26T06:23:01.554Z,80.19
2018-11-26T06:24:11.714Z,80.19
2018-11-26T06:25:21.875Z,80.19
2018-11-26T06:26:32.038Z,80.29
2018-11-26T06:27:42.188Z,80.48
2018-11-26T06:28:52.354Z,80.67
2018-11-26T06:30:02.519Z,80.86
2018-11-26T06:31:12.425Z,80.29
2018-11-26T06:32:23.419Z,80.57
2018-11-26T06:33:33.609Z,80.86
2018-11-26T06:34:45.015Z,80.19
2018-11-26T06:35:55.161Z,80.29
2018-11-26T06:37:05.335Z,80.38
2018-11-26T06:38:15.529Z,80.67
2018-11-26T06:39:25.680Z,80.48
2018-11-26T06:40:35.836Z,80.38
2018-11-26T06:41:45.995Z,80.29
2018-11-26T06:42:56.150Z,80.67
2018-11-26T06:44:06.301Z,80.34
2018-11-26T06:45:16.461Z,80.72
2018-11-26T06:46:26.616Z,80.67
2018-11-26T06:47:36.774Z,81.1
2018-11-26T06:48:47.842Z,80.67
2018-11-26T06:49:57.733Z,80.34
2018-11-26T06:51:07.913Z,80.44
2018-11-26T06:52:18.072Z,80.63
2018-11-26T06:53:27.964Z,80.25
2018-11-26T06:54:37.859Z,80.91
2018-11-26T06:55:48.020Z,80.91
2018-11-26T06:56:57.639Z,81.01
2018-11-26T06:58:07.790Z,80.91
2018-11-26T06:59:17.412Z,80.63
2018-11-26T07:00:27.578Z,80.91
2018-11-26T07:01:37.498Z,81.29
2018-11-26T07:02:47.690Z,81.38
2018-11-26T07:03:57.853Z,80.91
2018-11-26T07:05:08.012Z,81.01
2018-11-26T07:06:18.162Z,81.01
2018-11-26T07:07:28.324Z,80.91
2018-11-26T07:08:38.482Z,80.91
2018-11-26T07:09:48.632Z,80.44
2018-11-26T07:10:58.792Z,80.82
2018-11-26T07:12:08.952Z,80.91
2018-11-26T07:13:19.121Z,81.01
2018-11-26T07:14:29.016Z,80.15
2018-11-26T07:15:38.920Z,80.82
2018-11-26T07:16:49.075Z,80.91
2018-11-26T07:17:59.229Z,80.91
2018-11-26T07:19:09.323Z,80.53
2018-11-26T07:20:19.217Z,80.44
2018-11-26T07:21:29.408Z,80.44
2018-11-26T07:22:39.555Z,80.34
2018-11-26T07:23:49.711Z,81.1
2018-11-26T07:24:59.870Z,80.44
2018-11-26T07:26:10.032Z,80.34
2018-11-26T07:27:20.205Z,80.44
2018-11-26T07:28:30.103Z,80.44
2018-11-26T07:29:39.996Z,80.72
2018-11-26T07:30:49.889Z,80.53
2018-11-26T07:31:59.787Z,80.53
2018-11-26T07:33:09.951Z,80.53
2018-11-26T07:34:19.842Z,80.53
2018-11-26T07:35:29.996Z,80.63
2018-11-26T07:36:40.151Z,80.34
2018-11-26T07:37:50.305Z,80.34
2018-11-26T07:39:00.468Z,80.53
2018-11-26T07:40:10.670Z,80.25
2018-11-26T07:41:20.832Z,80.25
2018-11-26T07:42:30.731Z,80.34
2018-11-26T07:43:40.877Z,80.72
2018-11-26T07:44:50.767Z,80.44
2018-11-26T07:46:00.657Z,80.72
2018-11-26T07:47:10.811Z,80.53
2018-11-26T07:48:20.978Z,80.72
2018-11-26T07:49:30.880Z,80.63
2018-11-26T07:50:41.039Z,80.44
2018-11-26T07:51:51.204Z,80.53
2018-11-26T07:53:01.097Z,80.72
2018-11-26T07:54:11.251Z,80.53
2018-11-26T07:55:21.409Z,80.53
2018-11-26T07:56:31.572Z,80.34
2018-11-26T07:57:41.724Z,80.25
2018-11-26T07:58:51.889Z,80.53
2018-11-26T08:00:01.778Z,80.53
2018-11-26T08:01:11.941Z,80.63
2018-11-26T08:02:22.098Z,80.53
2018-11-26T08:03:32.263Z,79.96
2018-11-26T08:04:42.162Z,80.44
2018-11-26T08:05:52.057Z,80.44
2018-11-26T08:07:02.224Z,80.44
2018-11-26T08:08:12.375Z,80.34
2018-11-26T08:09:22.528Z,80.72
2018-11-26T08:10:32.697Z,80.44
2018-11-26T08:11:42.846Z,80.25
2018-11-26T08:12:53.055Z,80.82
2018-11-26T08:14:03.305Z,80.44
2018-11-26T08:15:13.463Z,80.63
2018-11-26T08:16:23.631Z,80.63
2018-11-26T08:17:33.520Z,80.63
2018-11-26T08:18:43.415Z,80.63
2018-11-26T08:19:53.612Z,80.25
2018-11-26T08:21:03.764Z,80.15
2018-11-26T08:22:13.919Z,80.63
2018-11-26T08:23:23.808Z,80.72
2018-11-26T08:24:33.959Z,80.53
2018-11-26T08:25:43.861Z,80.25
2018-11-26T08:26:54.015Z,80.25
2018-11-26T08:28:04.180Z,80.34
2018-11-26T08:29:14.081Z,80.25
2018-11-26T08:30:24.251Z,80.15
2018-11-26T08:31:34.415Z,80.06
2018-11-26T08:32:44.570Z,79.77
2018-11-26T08:33:54.470Z,80.25
2018-11-26T08:35:04.627Z,80.44
2018-11-26T08:36:14.820Z,80.15
2018-11-26T08:37:24.718Z,80.06
2018-11-26T08:38:34.871Z,80.82
2018-11-26T08:39:45.024Z,80.06
2018-11-26T08:40:54.911Z,80.15
2018-11-26T08:42:05.071Z,80.06
2018-11-26T08:43:15.226Z,79.77
2018-11-26T08:44:25.394Z,80.06
2018-11-26T08:45:35.579Z,80
2018-11-26T08:46:46.190Z,80.15
2018-11-26T08:47:56.341Z,80.1
2018-11-26T08:49:06.249Z,79.72
2018-11-26T08:50:16.674Z,80.1
2018-11-26T08:51:26.830Z,80.29
2018-11-26T08:52:36.722Z,80.29
2018-11-26T08:53:46.610Z,80
2018-11-26T08:54:56.761Z,80
2018-11-26T08:56:06.919Z,80.29
2018-11-26T08:57:16.798Z,80.19
2018-11-26T08:58:26.956Z,80.29
2018-11-26T08:59:37.124Z,80.48
2018-11-26T09:00:47.279Z,80.38
2018-11-26T09:01:57.440Z,79.82
2018-11-26T09:03:07.073Z,79.63
2018-11-26T09:04:17.280Z,79.34
2018-11-26T09:05:27.442Z,79.82
2018-11-26T09:06:37.606Z,79.72
2018-11-26T09:07:47.770Z,80.29
2018-11-26T09:08:57.941Z,79.72
2018-11-26T09:10:08.098Z,79.53
2018-11-26T09:11:18.251Z,79.82
2018-11-26T09:12:28.510Z,79.53
2018-11-26T09:13:38.683Z,79.72
2018-11-26T09:14:48.580Z,79.53
2018-11-26T09:15:58.741Z,79.53
2018-11-26T09:17:08.984Z,79.53
2018-11-26T09:18:18.982Z,79.72
2018-11-26T09:19:28.873Z,79.63
2018-11-26T09:20:38.776Z,79.53
2018-11-26T09:21:48.685Z,79.25
2018-11-26T09:22:58.858Z,79.63
2018-11-26T09:24:09.019Z,79.63
2018-11-26T09:25:18.904Z,79.34
2018-11-26T09:26:29.064Z,79.72
2018-11-26T09:27:38.956Z,79.63
2018-11-26T09:28:49.125Z,78.87
2018-11-26T09:29:59.291Z,79.63
2018-11-26T09:31:09.200Z,79.1
2018-11-26T09:32:19.371Z,79.38
2018-11-26T09:33:29.528Z,79
2018-11-26T09:34:39.683Z,79.66
2018-11-26T09:35:49.596Z,79.19
2018-11-26T09:36:59.753Z,79.1
2018-11-26T09:38:09.652Z,79.1
2018-11-26T09:39:20.922Z,79.38
2018-11-26T09:40:31.078Z,78.91
2018-11-26T09:41:41.285Z,78.81
2018-11-26T09:42:51.187Z,78.81
2018-11-26T09:44:01.466Z,78.72
2018-11-26T09:45:11.629Z,78.91
2018-11-26T09:46:21.524Z,79.38
2018-11-26T09:47:31.711Z,78.72
2018-11-26T09:48:41.945Z,79.1
2018-11-26T09:49:52.108Z,78.91
2018-11-26T09:51:02.270Z,79.1
2018-11-26T09:52:19.325Z,78.91
2018-11-26T09:53:29.222Z,78.91
2018-11-26T09:54:39.385Z,78.62
2018-11-26T09:55:49.544Z,78.91
2018-11-26T09:56:59.707Z,78.72
2018-11-26T09:58:09.868Z,79
2018-11-26T09:59:19.764Z,79.1
2018-11-26T10:00:29.688Z,78.72
2018-11-26T10:01:39.845Z,79
2018-11-26T10:02:50.011Z,79
2018-11-26T10:04:00.178Z,78.72
2018-11-26T10:05:10.335Z,78.72
2018-11-26T10:06:20.247Z,78.91
2018-11-26T10:07:30.152Z,78.72
2018-11-26T10:08:40.319Z,78.72
2018-11-26T10:09:50.476Z,79
2018-11-26T10:11:00.644Z,78.91
2018-11-26T10:12:10.811Z,78.91
2018-11-26T10:13:20.965Z,78.72
2018-11-26T10:14:31.118Z,78.91
2018-11-26T10:15:41.290Z,78.81
2018-11-26T10:16:51.453Z,78.75
2018-11-26T10:18:01.634Z,78.72
2018-11-26T10:19:11.815Z,78.72
2018-11-26T10:20:21.706Z,78.66
2018-11-26T10:21:31.613Z,78.85
2018-11-26T10:22:41.823Z,78.66
2018-11-26T10:23:51.718Z,79.04
2018-11-26T10:25:08.349Z,78.47
2018-11-26T10:26:18.513Z,78.85
2018-11-26T10:27:28.676Z,79.23
2018-11-26T10:28:38.838Z,78.85
2018-11-26T10:29:49.011Z,78.28
2018-11-26T10:30:59.223Z,78.85
2018-11-26T10:32:09.391Z,79.14
2018-11-26T10:33:19.852Z,79.14
2018-11-26T10:34:29.746Z,79.04
2018-11-26T10:35:39.647Z,78.95
2018-11-26T10:36:49.866Z,78.95
2018-11-26T10:37:59.763Z,79.04
2018-11-26T10:39:09.682Z,79.42
2018-11-26T10:40:19.584Z,79.14
2018-11-26T10:41:29.755Z,79.14
2018-11-26T10:42:39.653Z,79.52
2018-11-26T10:43:49.309Z,79.71
2018-11-26T10:44:58.678Z,79.9
2018-11-26T10:46:08.599Z,80.37
2018-11-26T10:47:18.767Z,80.46
2018-11-26T10:48:28.926Z,80.37
2018-11-26T10:49:39.094Z,80.27
2018-11-26T10:50:49.013Z,80.46
2018-11-26T10:51:59.180Z,80.56
2018-11-26T10:53:09.343Z,80.56
2018-11-26T10:54:19.238Z,80.94
2018-11-26T10:55:29.135Z,81.04
2018-11-26T10:56:38.771Z,80.84
2018-11-26T10:57:48.137Z,80.94
2018-11-26T10:58:58.036Z,81.13
2018-11-26T11:00:08.199Z,81.23
2018-11-26T11:01:18.361Z,81.51
2018-11-26T11:02:28.523Z,81.51
2018-11-26T11:03:38.687Z,81.7
2018-11-26T11:04:50.250Z,81.98
2018-11-26T11:06:00.407Z,81.7
2018-11-26T11:07:10.566Z,82.17
2018-11-26T11:08:20.726Z,82.27
2018-11-26T11:09:31.649Z,81.79
2018-11-26T11:10:41.945Z,82.17
2018-11-26T11:11:52.105Z,82.46
2018-11-26T11:13:01.739Z,82.17
2018-11-26T11:14:11.688Z,81.88
2018-11-26T11:15:21.850Z,82.27
2018-11-26T11:16:31.997Z,82.17
2018-11-26T11:17:42.212Z,82.17
2018-11-26T11:18:52.120Z,82.36
2018-11-26T11:20:02.288Z,82.27
2018-11-26T11:21:12.188Z,83.12
2018-11-26T11:22:22.093Z,82.4
2018-11-26T11:23:32.255Z,83.36
2018-11-26T11:24:42.422Z,83.07
2018-11-26T11:25:52.579Z,82.93
2018-11-26T11:27:02.481Z,83.26
2018-11-26T11:28:12.388Z,82.78
2018-11-26T11:29:22.010Z,83.36
2018-11-26T11:30:31.637Z,83.36
2018-11-26T11:31:41.525Z,82.97
2018-11-26T11:32:51.162Z,83.45
2018-11-26T11:34:01.063Z,83.36
2018-11-26T11:35:11.256Z,83.26
2018-11-26T11:36:20.882Z,83.45
2018-11-26T11:37:30.763Z,83.54
2018-11-26T11:38:40.656Z,83.92
2018-11-26T11:39:51.564Z,83.54
2018-11-26T11:41:01.702Z,84.01
2018-11-26T11:42:11.328Z,83.64
2018-11-26T11:43:21.227Z,83.83
2018-11-26T11:44:31.121Z,83.83
2018-11-26T11:45:40.808Z,83.69
2018-11-26T11:46:50.694Z,83.83
2018-11-26T11:48:00.580Z,84.01
2018-11-26T11:49:10.467Z,83.73
2018-11-26T11:50:20.627Z,83.92
2018-11-26T11:51:30.009Z,83.83
2018-11-26T11:52:39.632Z,83.73
2018-11-26T11:53:49.519Z,83.83
2018-11-26T11:54:59.420Z,83.83
2018-11-26T11:56:09.048Z,84.01
2018-11-26T11:57:19.200Z,84.11
2018-11-26T11:58:28.818Z,83.83
2018-11-26T11:59:38.694Z,83.92
2018-11-26T12:00:48.583Z,84.11
2018-11-26T12:01:58.206Z,84.78
2018-11-26T12:03:07.821Z,84.11
2018-11-26T12:04:17.712Z,84.49
2018-11-26T12:05:27.602Z,84.49
2018-11-26T12:06:37.758Z,84.87
2018-11-26T12:07:47.908Z,84.59
2018-11-26T12:08:57.265Z,84.49
2018-11-26T12:10:07.461Z,84.68
2018-11-26T12:11:17.617Z,84.78
2018-11-26T12:12:27.765Z,84.87
2018-11-26T12:13:37.697Z,84.59
2018-11-26T12:14:47.589Z,84.97
2018-11-26T12:15:57.475Z,85.06
2018-11-26T12:17:07.365Z,84.87
2018-11-26T12:18:16.988Z,84.49
2018-11-26T12:19:26.874Z,84.97
2018-11-26T12:20:36.756Z,85.35
2018-11-26T12:21:46.418Z,84.68
2018-11-26T12:22:56.569Z,85.06
2018-11-26T12:24:06.458Z,84.97
2018-11-26T12:25:16.618Z,85.06
2018-11-26T12:26:25.976Z,85.53
2018-11-26T12:27:35.859Z,85.06
2018-11-26T12:28:45.743Z,85.35
2018-11-26T12:29:55.631Z,84.97
2018-11-26T12:31:05.782Z,84.97
2018-11-26T12:32:15.930Z,84.78
2018-11-26T12:33:26.085Z,85.06
2018-11-26T12:34:35.701Z,84.68
2018-11-26T12:35:45.590Z,85.63
2018-11-26T12:37:00.355Z,85.06
2018-11-26T12:38:10.244Z,85.53
2018-11-26T12:39:19.922Z,85.06
2018-11-26T12:40:29.553Z,85.16
2018-11-26T12:41:39.437Z,85.06
2018-11-26T12:42:49.064Z,85.06
2018-11-26T12:43:58.949Z,85.53
2018-11-26T12:45:09.106Z,85.35
2018-11-26T12:46:18.727Z,85.63
2018-11-26T12:47:28.621Z,85.63
2018-11-26T12:48:38.507Z,85.35
2018-11-26T12:49:48.400Z,85.53
2018-11-26T12:50:58.284Z,85.25
2018-11-26T12:52:08.437Z,85.06
2018-11-26T12:53:18.095Z,85.44
2018-11-26T12:54:28.232Z,85.72
2018-11-26T12:55:37.849Z,85.63
2018-11-26T12:56:47.830Z,85.82
2018-11-26T12:57:57.181Z,85.35
2018-11-26T12:59:07.332Z,85.25
2018-11-26T13:00:17.209Z,85.63
2018-11-26T13:01:26.948Z,85.72
2018-11-26T13:02:36.592Z,85.91
2018-11-26T13:03:45.684Z,85.72
2018-11-26T13:04:55.710Z,85.91
2018-11-26T13:06:05.593Z,85.91
2018-11-26T13:07:15.741Z,86.11
2018-11-26T13:08:25.894Z,86.2
2018-11-26T13:09:35.259Z,86.11
2018-11-26T13:10:44.620Z,85.82
2018-11-26T13:11:54.501Z,86.2
2018-11-26T13:13:04.384Z,85.72
2018-11-26T13:14:14.533Z,85.82
2018-11-26T13:15:23.882Z,86.01
2018-11-26T13:16:33.599Z,85.91
2018-11-26T13:17:43.491Z,85.91
2018-11-26T13:18:53.377Z,85.91
2018-11-26T13:20:02.471Z,85.82
2018-11-26T13:21:12.638Z,86.01
2018-11-26T13:22:22.256Z,85.91
2018-11-26T13:23:32.148Z,86.3
2018-11-26T13:24:42.031Z,86.01
2018-11-26T13:25:52.185Z,86.01
2018-11-26T13:27:02.085Z,86.11
2018-11-26T13:28:12.251Z,85.82
2018-11-26T13:29:22.400Z,85.72
2018-11-26T13:30:32.556Z,86.11
2018-11-26T13:31:42.710Z,86.2
2018-11-26T13:32:52.332Z,86.2
2018-11-26T13:34:02.489Z,85.91
2018-11-26T13:35:12.779Z,86.01
2018-11-26T13:36:22.670Z,86.3
2018-11-26T13:37:32.557Z,86.11
2018-11-26T13:38:42.703Z,86.01
2018-11-26T13:39:52.583Z,86.3
2018-11-26T13:41:02.737Z,86.39
2018-11-26T13:42:12.895Z,86.87
2018-11-26T13:43:22.540Z,86.39
2018-11-26T13:44:32.425Z,86.2
2018-11-26T13:45:42.594Z,86.11
2018-11-26T13:46:52.210Z,86.87
2018-11-26T13:48:02.092Z,86.68
2018-11-26T13:49:12.033Z,86.49
2018-11-26T13:50:22.997Z,86.3
2018-11-26T13:51:33.168Z,86.96
2018-11-26T13:52:42.751Z,86.58
2018-11-26T13:53:52.320Z,86.3
2018-11-26T13:55:01.932Z,86.49
2018-11-26T13:56:12.039Z,86.39
2018-11-26T13:57:21.873Z,86.39
2018-11-26T13:58:31.968Z,86.11
2018-11-26T13:59:41.281Z,86.39
2018-11-26T14:00:50.854Z,86.3
2018-11-26T14:02:00.687Z,86.39
2018-11-26T14:03:09.998Z,86.58
2018-11-26T14:04:20.092Z,86.87
2018-11-26T14:05:29.927Z,86.77
2018-11-26T14:06:39.855Z,86.11
2018-11-26T14:07:49.197Z,86.39
2018-11-26T14:08:59.302Z,86.49
2018-11-26T14:10:09.146Z,86.68
2018-11-26T14:11:18.987Z,86.77
2018-11-26T14:12:28.561Z,87.05
2018-11-26T14:13:38.140Z,87.05
2018-11-26T14:14:51.635Z,86.87
2018-11-26T14:16:01.725Z,86.49
2018-11-26T14:17:11.882Z,86.87
2018-11-26T14:18:21.982Z,86.68
2018-11-26T14:19:31.827Z,86.3
2018-11-26T14:20:41.662Z,86.58
2018-11-26T14:21:51.497Z,86.77
2018-11-26T14:23:01.342Z,86.39
2018-11-26T14:24:11.449Z,86.87
2018-11-26T14:25:21.032Z,86.87
2018-11-26T14:26:30.865Z,86.49
2018-11-26T14:27:40.748Z,86.96
2018-11-26T14:28:50.846Z,86.96
2018-11-26T14:30:00.678Z,86.96
2018-11-26T14:31:10.508Z,86.87
2018-11-26T14:32:19.560Z,86.96
2018-11-26T14:33:29.400Z,86.77
2018-11-26T14:34:38.992Z,86.87
2018-11-26T14:35:48.827Z,86.87
2018-11-26T14:36:58.719Z,86.39
2018-11-26T14:38:08.294Z,86.39
2018-11-26T14:39:17.871Z,86.39
2018-11-26T14:40:27.713Z,86.77
2018-11-26T14:41:37.032Z,86.58
2018-11-26T14:42:47.507Z,86.49
2018-11-26T14:43:57.212Z,86.87
2018-11-26T14:45:06.868Z,86.68
2018-11-26T14:46:16.705Z,86.87
2018-11-26T14:47:26.538Z,86.68
2018-11-26T14:48:36.379Z,86.68
2018-11-26T14:49:46.214Z,86.49
2018-11-26T14:50:55.790Z,86.68
2018-11-26T14:52:05.625Z,86.58
2018-11-26T14:53:15.515Z,86.58
2018-11-26T14:54:25.100Z,86.39
2018-11-26T14:55:34.683Z,86.58
2018-11-26T14:56:44.521Z,86.39
2018-11-26T14:57:54.619Z,86.39
2018-11-26T14:59:04.720Z,86.39
2018-11-26T15:00:14.091Z,86.49
2018-11-26T15:01:23.431Z,86.39
2018-11-26T15:02:33.281Z,86.58
2018-11-26T15:03:42.589Z,85.72
2018-11-26T15:04:52.159Z,85.82
2018-11-26T15:06:02.041Z,86.54